Time;durP1;ratioP1;P1;durP2;ratioP2;P2;SDS_P1;SDS_P2;PMS_P1;PMS_P2;Temp;Humidity;BMP_temperature;BMP_pressure;BME280_temperature;BME280_humidity;BME280_pressure;Samples;Min_cycle;Max_cycle;Signal;HPM_P1;HPM_P2
2022/05/19 00:02:33;;;;;;;0.90;0.90;;;10.70;1.40;;;12.24;100.00;95933.19;646890;216;32224;-76
2022/05/19 00:07:49;;;;;;;2.80;1.00;;;10.60;1.40;;;12.19;100.00;95930.30;646608;216;32486;-75
2022/05/19 00:10:30;;;;;;;1.00;0.80;;;10.70;1.40;;;12.21;100.00;95925.70;643328;216;31528;-75
2022/05/19 00:13:50;;;;;;;1.00;0.60;;;10.60;1.40;;;12.16;100.00;95923.39;647147;216;31813;-76
2022/05/19 00:16:32;;;;;;;1.33;1.00;;;10.60;1.40;;;12.29;100.00;95928.49;646880;216;31650;-74
2022/05/19 00:19:13;;;;;;;1.20;0.93;;;10.70;1.40;;;12.28;100.00;95923.17;647579;216;31639;-75
2022/05/19 00:21:55;;;;;;;1.40;0.90;;;10.70;1.40;;;12.21;100.00;95924.56;645629;212;31571;-75
2022/05/19 00:24:43;;;;;;;1.10;1.00;;;10.50;1.40;;;12.04;100.00;95924.55;619591;226;31924;-81
2022/05/19 00:30:05;;;;;;;1.00;0.73;;;10.50;1.40;;;12.01;100.00;95923.30;645966;216;31526;-76
2022/05/19 00:32:50;;;;;;;1.20;0.90;;;10.40;1.40;;;11.92;100.00;95915.91;646459;213;31777;-75
2022/05/19 00:35:50;;;;;;;0.88;0.88;;;10.30;1.40;;;11.83;100.00;95919.86;647311;216;31571;-75
2022/05/19 00:38:32;;;;;;;1.40;0.90;;;10.20;1.40;;;11.82;100.00;95913.14;646708;212;32431;-75
2022/05/19 00:41:17;;;;;;;1.48;1.00;;;10.20;1.40;;;11.82;100.00;95912.16;619944;222;31920;-75
2022/05/19 00:44:02;;;;;;;1.23;0.70;;;10.20;1.40;;;11.79;100.00;95908.52;646655;216;31901;-75
2022/05/19 00:46:46;;;;;;;1.00;0.90;;;10.20;1.40;;;11.74;100.00;95909.41;646465;212;31563;-75
2022/05/19 00:49:28;;;;;;;0.62;0.62;;;10.20;1.40;;;11.85;100.00;95912.92;646313;216;31513;-75
2022/05/19 00:52:30;;;;;;;1.20;0.90;;;10.50;1.40;;;11.76;100.00;95915.79;646744;216;31654;-75
2022/05/19 00:55:14;;;;;;;1.55;0.73;;;10.40;1.40;;;11.82;100.00;95916.61;641970;216;42181;-74
2022/05/19 01:00:30;;;;;;;1.00;0.90;;;10.20;1.40;;;11.62;100.00;95916.99;620436;226;31853;-75
2022/05/19 01:03:12;;;;;;;1.50;0.80;;;10.00;1.40;;;11.56;100.00;95917.70;646403;216;32580;-75
2022/05/19 01:05:55;;;;;;;0.80;0.80;;;10.00;1.40;;;11.49;100.00;95915.41;646890;216;31628;-75
2022/05/19 01:08:44;;;;;;;0.87;0.70;;;9.90;1.40;;;11.45;100.00;95914.55;642192;216;31970;-75
2022/05/19 01:11:25;;;;;;;1.00;0.90;;;9.90;1.40;;;11.41;100.00;95915.28;647575;216;31490;-75
2022/05/19 01:14:08;;;;;;;1.60;0.70;;;9.80;1.40;;;11.35;100.00;95912.23;646696;216;31573;-75
2022/05/19 01:16:49;;;;;;;1.40;1.17;;;9.80;1.40;;;11.32;100.00;95909.22;620185;226;31845;-75
2022/05/19 01:19:35;;;;;;;2.30;0.90;;;9.80;1.40;;;11.34;100.00;95905.63;646808;216;31548;-75
2022/05/19 01:22:43;;;;;;;0.90;0.70;;;9.80;1.40;;;11.30;100.00;95905.99;647466;216;31545;-75
2022/05/19 01:25:47;;;;;;;0.93;0.82;;;9.70;1.40;;;11.19;100.00;95907.49;647323;216;42179;-75
2022/05/19 01:28:32;;;;;;;0.73;0.73;;;9.70;1.40;;;11.24;100.00;95907.84;647550;216;31601;-75
2022/05/19 01:31:28;;;;;;;1.10;1.00;;;9.70;1.40;;;11.26;100.00;95910.95;620650;226;42468;-74
2022/05/19 01:35:54;;;;;;;2.50;1.70;;;9.60;1.40;;;11.16;100.00;95908.03;645769;216;31722;-75
2022/05/19 01:38:41;;;;;;;1.30;1.00;;;9.60;1.40;;;11.19;100.00;95911.28;646631;216;31561;-75
2022/05/19 01:41:26;;;;;;;1.00;1.00;;;9.70;1.40;;;11.13;100.00;95907.78;645712;216;42162;-76
2022/05/19 01:44:20;;;;;;;1.30;1.00;;;9.70;1.40;;;11.04;100.00;95902.23;647078;212;42526;-75
2022/05/19 01:47:12;;;;;;;0.97;0.80;;;9.50;1.40;;;10.90;100.00;95903.95;646727;216;31766;-75
2022/05/19 01:50:04;;;;;;;0.77;0.62;;;9.30;1.40;;;10.84;100.00;95901.44;646081;216;31500;-74
2022/05/19 01:52:48;;;;;;;1.50;1.20;;;9.30;1.40;;;10.79;100.00;95897.83;619096;226;42486;-75
2022/05/19 01:55:44;;;;;;;1.10;0.80;;;9.20;1.40;;;10.71;100.00;95898.67;645744;212;31553;-75
2022/05/19 01:58:31;;;;;;;1.20;1.10;;;9.20;1.40;;;10.67;100.00;95899.72;646856;212;31521;-75
2022/05/19 02:01:14;;;;;;;1.10;0.60;;;9.20;1.40;;;10.72;100.00;95901.70;647886;216;31505;-74
2022/05/19 02:04:02;;;;;;;1.00;0.90;;;9.20;1.40;;;10.73;100.00;95898.59;618845;225;31859;-76
2022/05/19 02:06:46;;;;;;;1.43;1.07;;;9.20;1.40;;;10.70;100.00;95903.46;647284;212;31631;-75
2022/05/19 02:09:29;;;;;;;0.90;0.90;;;9.20;1.40;;;10.70;100.00;95898.14;637831;216;31725;-75
2022/05/19 02:12:11;;;;;;;0.80;0.80;;;9.30;1.40;;;10.88;100.00;95898.39;646922;216;31587;-75
2022/05/19 02:14:55;;;;;;;0.80;0.80;;;9.40;1.40;;;10.85;100.00;95896.81;647328;216;42142;-75
2022/05/19 02:17:36;;;;;;;0.70;0.57;;;9.40;1.40;;;10.72;100.00;95897.24;620547;226;31869;-74
2022/05/19 02:20:18;;;;;;;0.90;0.90;;;9.30;1.40;;;10.78;100.00;95894.07;646319;216;31525;-75
2022/05/19 02:23:00;;;;;;;0.70;0.60;;;9.30;1.40;;;10.82;100.00;95893.28;646721;212;31569;-76
2022/05/19 02:25:43;;;;;;;1.07;0.70;;;9.40;1.40;;;10.82;100.00;95894.73;646042;216;31588;-74
2022/05/19 02:28:33;;;;;;;1.20;0.90;;;9.50;1.40;;;10.94;100.00;95893.57;645905;216;31919;-75
2022/05/19 02:31:17;;;;;;;2.37;1.13;;;9.40;1.40;;;10.85;100.00;95896.86;646966;212;31532;-75
2022/05/19 02:35:52;;;;;;;1.10;0.90;;;9.40;1.40;;;10.90;100.00;95899.22;646877;212;31453;-74
2022/05/19 02:38:33;;;;;;;1.75;1.02;;;9.40;1.40;;;10.83;100.00;95898.63;645689;216;31477;-75
2022/05/19 02:41:15;;;;;;;1.23;0.90;;;9.40;1.40;;;10.88;100.00;95902.50;619274;222;32048;-75
2022/05/19 02:43:57;;;;;;;0.70;0.70;;;9.40;1.40;;;10.71;100.00;95904.97;647609;216;31545;-74
2022/05/19 02:46:38;;;;;;;0.73;0.73;;;9.30;1.40;;;10.67;100.00;95904.69;647191;216;31472;-74
2022/05/19 02:49:20;;;;;;;0.70;0.67;;;9.30;1.40;;;10.61;100.00;95904.09;646722;212;31553;-75
2022/05/19 02:52:02;;;;;;;0.50;0.50;;;9.20;1.40;;;10.58;100.00;95905.83;647276;216;31510;-75
2022/05/19 02:54:43;;;;;;;1.60;1.10;;;9.10;1.40;;;10.51;100.00;95900.51;647079;212;31514;-74
2022/05/19 02:57:25;;;;;;;1.30;1.03;;;9.00;1.40;;;10.39;100.00;95904.50;646893;216;31531;-74
2022/05/19 03:00:12;;;;;;;1.90;0.70;;;8.90;1.40;;;10.45;100.00;95906.89;645911;216;31581;-75
2022/05/19 03:02:53;;;;;;;1.48;1.30;;;8.90;1.40;;;10.41;100.00;95907.19;647671;216;31844;-75
2022/05/19 03:05:34;;;;;;;0.82;0.80;;;8.90;1.40;;;10.42;100.00;95903.67;646675;216;31656;-75
2022/05/19 03:08:16;;;;;;;0.80;0.60;;;8.90;1.40;;;10.38;100.00;95900.01;644663;216;31828;-75
2022/05/19 03:10:58;;;;;;;0.90;0.80;;;8.90;1.40;;;10.32;100.00;95899.50;647181;216;31530;-75
2022/05/19 03:13:40;;;;;;;1.40;1.30;;;8.90;1.40;;;10.25;100.00;95899.70;647524;216;31542;-76
2022/05/19 03:16:21;;;;;;;1.37;1.30;;;8.80;1.40;;;10.38;100.00;95900.88;646820;216;31544;-77
2022/05/19 03:21:37;;;;;;;1.50;1.40;;;8.90;1.40;;;10.22;100.00;95898.20;646392;216;31534;-75
2022/05/19 03:24:22;;;;;;;1.27;1.03;;;8.70;1.40;;;10.23;100.00;95894.34;646016;216;32116;-75
2022/05/19 03:27:04;;;;;;;1.30;0.70;;;8.70;1.40;;;10.12;100.00;95894.39;646093;212;32121;-75
2022/05/19 03:29:49;;;;;;;1.00;0.83;;;8.60;1.40;;;10.08;100.00;95898.52;646980;216;31502;-76
2022/05/19 03:32:31;;;;;;;1.57;1.47;;;8.50;1.40;;;10.05;100.00;95898.77;647541;216;31518;-75
2022/05/19 03:38:25;;;;;;;1.10;1.00;;;8.60;1.40;;;10.11;100.00;95897.02;619054;226;31860;-75
2022/05/19 03:41:09;;;;;;;1.70;0.60;;;8.70;1.40;;;9.99;100.00;95898.48;645420;212;32260;-75
2022/05/19 03:43:51;;;;;;;2.00;1.58;;;8.60;1.40;;;10.06;100.00;95900.05;646540;216;31640;-75
2022/05/19 03:46:33;;;;;;;0.90;0.90;;;8.50;1.40;;;9.97;100.00;95896.28;647724;216;31941;-75
2022/05/19 03:49:14;;;;;;;1.00;0.90;;;8.50;1.40;;;10.11;100.00;95901.72;646902;216;31704;-75
2022/05/19 03:51:56;;;;;;;1.40;0.80;;;8.70;1.40;;;10.10;100.00;95899.41;648228;216;31521;-75
2022/05/19 03:54:38;;;;;;;2.83;1.00;;;8.60;1.40;;;10.23;100.00;95904.01;647148;216;31580;-75
2022/05/19 03:57:23;;;;;;;1.10;0.60;;;8.70;1.40;;;10.32;100.00;95908.06;646686;216;31566;-75
2022/05/19 04:00:05;;;;;;;0.80;0.70;;;8.70;1.40;;;10.22;100.00;95909.36;646130;212;31831;-75
2022/05/19 04:02:47;;;;;;;0.67;0.67;;;8.70;1.40;;;10.20;100.00;95907.67;646253;216;31514;-75
2022/05/19 04:05:28;;;;;;;0.90;0.60;;;8.70;1.40;;;10.13;100.00;95906.36;646686;216;31536;-75
2022/05/19 04:08:10;;;;;;;1.60;1.00;;;8.60;1.40;;;10.11;100.00;95909.86;644648;212;31515;-75
2022/05/19 04:10:52;;;;;;;1.63;1.23;;;8.60;1.40;;;10.17;100.00;95906.47;618564;226;31858;-76
2022/05/19 04:13:33;;;;;;;0.60;0.60;;;8.80;1.40;;;10.30;100.00;95904.19;647066;212;31522;-75
2022/05/19 04:16:15;;;;;;;1.57;0.80;;;8.80;1.40;;;10.31;100.00;95901.89;647607;216;31543;-75
2022/05/19 04:21:32;;;;;;;1.30;1.20;;;8.90;1.40;;;10.51;100.00;95903.77;646765;216;31541;-75
2022/05/19 04:24:13;;;;;;;0.80;0.80;;;9.10;1.40;;;10.55;100.00;95912.44;646630;216;31608;-76
2022/05/19 04:26:54;;;;;;;1.70;1.30;;;9.10;1.40;;;10.62;100.00;95905.27;646976;212;31528;-75
2022/05/19 04:29:36;;;;;;;1.73;1.03;;;9.20;1.40;;;10.72;100.00;95914.02;646624;216;32918;-74
2022/05/19 04:32:18;;;;;;;0.93;0.57;;;9.20;1.40;;;10.86;100.00;95914.96;647315;212;32083;-76
2022/05/19 04:35:50;;;;;;;0.70;0.60;;;9.40;1.40;;;11.00;100.00;95914.56;647297;213;31569;-75
2022/05/19 04:38:32;;;;;;;1.00;0.90;;;9.40;1.40;;;10.97;100.00;95917.56;619877;226;31915;-75
2022/05/19 04:41:20;;;;;;;1.10;1.10;;;9.40;1.40;;;11.04;100.00;95922.73;619858;226;31863;-82
2022/05/19 04:44:08;;;;;;;1.20;0.90;;;9.50;1.40;;;10.93;100.00;95918.77;644636;216;31517;-74
2022/05/19 04:46:50;;;;;;;3.53;1.20;;;9.50;1.40;;;11.09;100.00;95913.70;632106;221;31628;-75
2022/05/19 04:49:32;;;;;;;1.10;1.00;;;9.60;1.40;;;11.13;100.00;95913.03;646589;213;31610;-75
2022/05/19 04:52:16;;;;;;;1.40;1.10;;;9.70;1.40;;;11.25;100.00;95916.67;647107;212;31560;-75
2022/05/19 04:54:58;;;;;;;1.53;1.43;;;9.80;1.40;;;11.45;100.00;95921.41;645923;212;42224;-75
2022/05/19 04:57:40;;;;;;;4.83;1.57;;;10.00;1.40;;;11.64;100.00;95922.33;646988;216;42150;-75
2022/05/19 05:00:21;;;;;;;1.75;1.42;;;10.10;1.40;;;11.73;100.00;95924.48;645256;216;32044;-74
2022/05/19 05:03:03;;;;;;;1.42;1.30;;;10.20;1.40;;;11.80;100.00;95920.64;646204;216;31528;-74
2022/05/19 05:05:45;;;;;;;1.15;1.05;;;10.30;1.40;;;11.94;100.00;95922.62;646994;216;42130;-74
2022/05/19 05:08:26;;;;;;;3.93;2.40;;;10.50;1.40;;;12.11;100.00;95918.41;644252;212;42875;-74
2022/05/19 05:11:16;;;;;;;1.10;1.00;;;10.80;1.40;;;12.31;100.00;95923.67;648141;216;31480;-75
2022/05/19 05:13:58;;;;;;;1.47;1.37;;;11.00;1.40;;;12.37;100.00;95929.46;647226;212;31905;-74
2022/05/19 05:16:39;;;;;;;2.97;1.50;;;11.10;1.40;;;12.52;100.00;95922.26;646776;216;31700;-75
2022/05/19 05:19:22;;;;;;;2.43;1.83;;;11.20;1.40;;;12.58;100.00;95926.97;646030;212;31613;-75
2022/05/19 05:22:03;;;;;;;1.87;1.70;;;11.20;1.40;;;12.77;100.00;95925.28;646786;212;31557;-74
2022/05/19 05:24:44;;;;;;;1.87;1.57;;;11.30;1.40;;;12.93;100.00;95929.20;646198;216;31542;-75
2022/05/19 05:27:26;;;;;;;1.80;1.40;;;11.40;1.40;;;13.05;100.00;95932.09;647516;212;31543;-74
2022/05/19 05:30:11;;;;;;;1.30;1.20;;;11.60;1.40;;;13.26;100.00;95930.48;646502;213;37956;-75
2022/05/19 05:32:53;;;;;;;2.70;2.10;;;11.80;1.40;;;13.40;100.00;95936.94;646758;212;32134;-75
2022/05/19 05:35:51;;;;;;;1.75;1.50;;;11.90;1.40;;;13.46;100.00;95933.36;618899;222;31925;-75
2022/05/19 05:38:33;;;;;;;3.50;1.87;;;12.00;1.40;;;13.60;100.00;95936.52;646709;216;34958;-75
2022/05/19 05:43:38;;;;;;;2.00;1.30;;;12.20;1.40;;;13.82;100.00;95939.49;646853;216;31612;-75
2022/05/19 05:46:16;;;;;;;1.33;1.23;;;12.50;1.40;;;14.05;100.00;95939.67;646581;216;37449;-75
2022/05/19 05:48:58;;;;;;;1.90;1.70;;;12.50;1.40;;;14.06;100.00;95934.52;645944;216;42282;-75
2022/05/19 05:51:40;;;;;;;1.95;1.77;;;12.60;1.40;;;14.20;100.00;95937.10;647012;216;42425;-75
2022/05/19 05:54:22;;;;;;;2.08;1.55;;;12.70;1.40;;;14.48;100.00;95938.59;646799;212;31600;-75
2022/05/19 05:57:07;;;;;;;4.57;1.45;;;12.90;1.40;;;14.58;100.00;95941.38;645991;216;32203;-75
2022/05/19 05:59:49;;;;;;;2.10;1.60;;;13.00;1.40;;;14.68;100.00;95939.77;646447;216;31545;-75
2022/05/19 06:02:30;;;;;;;1.98;1.45;;;13.10;1.40;;;14.78;100.00;95942.19;646658;216;31564;-74
2022/05/19 06:07:50;;;;;;;2.05;1.55;;;13.30;1.40;;;14.96;100.00;95946.69;642430;216;31675;-77
2022/05/19 06:10:37;;;;;;;1.80;1.70;;;13.40;1.40;;;15.13;100.00;95951.04;645788;216;31570;-75
2022/05/19 06:13:19;;;;;;;2.42;1.35;;;13.60;1.40;;;15.15;100.00;95950.47;647437;216;31588;-75
2022/05/19 06:16:01;;;;;;;1.67;1.58;;;13.80;1.40;;;15.38;100.00;95952.34;646701;216;31536;-74
2022/05/19 06:18:42;;;;;;;1.87;1.40;;;13.90;1.40;;;15.57;100.00;95957.37;646623;216;31538;-74
2022/05/19 06:21:27;;;;;;;1.70;1.60;;;14.00;1.40;;;15.60;100.00;95948.55;646296;216;31751;-74
2022/05/19 06:24:09;;;;;;;2.15;1.77;;;14.20;1.40;;;15.70;100.00;95949.48;647024;216;31500;-75
2022/05/19 06:26:53;;;;;;;2.67;1.60;;;14.30;1.40;;;15.85;100.00;95945.53;646373;216;31659;-74
2022/05/19 06:29:35;;;;;;;2.42;1.70;;;14.50;1.40;;;16.05;100.00;95949.77;646375;216;31544;-74
2022/05/19 06:32:17;;;;;;;1.30;1.20;;;14.70;1.40;;;16.26;100.00;95949.11;618729;225;31879;-75
2022/05/19 06:35:51;;;;;;;2.60;1.60;;;14.90;1.40;;;16.47;100.00;95943.88;646304;212;32183;-74
2022/05/19 06:38:33;;;;;;;2.60;1.70;;;15.00;1.40;;;16.70;100.00;95946.60;646895;212;32062;-74
2022/05/19 06:44:01;;;;;;;3.25;1.60;;;15.50;1.40;;;16.96;100.00;95950.56;646045;216;31621;-74
2022/05/19 06:46:43;;;;;;;1.77;1.45;;;15.60;1.40;;;17.04;100.00;95959.84;647036;216;31567;-74
2022/05/19 06:49:28;;;;;;;1.87;1.20;;;15.80;1.40;;;17.25;100.00;95955.49;645913;216;31711;-74
2022/05/19 06:52:13;;;;;;;1.50;1.40;;;15.90;1.40;;;17.13;100.00;95957.83;645369;212;31552;-75
2022/05/19 06:54:54;;;;;;;1.48;1.37;;;15.80;1.40;;;17.26;100.00;95953.70;646947;212;31614;-74
2022/05/19 06:57:36;;;;;;;1.60;1.50;;;15.90;1.40;;;17.57;100.00;95955.45;619045;225;42773;-74
2022/05/19 07:00:18;;;;;;;2.60;1.40;;;16.20;1.40;;;17.81;100.00;95953.95;646184;216;31531;-74
2022/05/19 07:03:00;;;;;;;2.10;1.90;;;16.50;1.40;;;17.77;100.00;95956.77;646974;216;31512;-74
2022/05/19 07:05:42;;;;;;;2.00;1.60;;;16.50;1.40;;;18.08;100.00;95953.89;646285;212;31554;-74
2022/05/19 07:08:23;;;;;;;1.98;1.40;;;16.60;1.40;;;18.05;100.00;95955.30;643592;216;31727;-76
2022/05/19 07:11:05;;;;;;;1.62;1.52;;;16.70;1.40;;;18.11;100.00;95957.18;646562;216;31516;-74
2022/05/19 07:13:47;;;;;;;2.20;1.55;;;16.80;1.40;;;18.24;100.00;95957.80;647369;216;31536;-75
2022/05/19 07:16:31;;;;;;;3.40;1.70;;;16.90;1.40;;;18.40;100.00;95957.79;646487;212;32151;-74
2022/05/19 07:22:01;;;;;;;2.58;1.87;;;17.30;1.40;;;18.99;100.00;95955.70;645839;216;31602;-74
2022/05/19 07:24:45;;;;;;;2.10;1.90;;;17.40;1.40;;;19.04;100.00;95956.36;646828;216;31553;-75
2022/05/19 07:27:29;;;;;;;2.70;1.85;;;17.60;1.40;;;19.02;100.00;95952.22;646583;216;31605;-74
2022/05/19 07:30:12;;;;;;;4.70;1.90;;;17.60;1.40;;;19.03;100.00;95952.31;646671;216;31540;-74
2022/05/19 07:32:54;;;;;;;1.80;1.70;;;17.70;1.40;;;19.31;100.00;95954.88;647070;216;31618;-75
2022/05/19 07:35:42;;;;;;;1.50;1.40;;;17.90;1.40;;;19.54;100.00;95952.90;618580;226;32851;-74
2022/05/19 07:38:30;;;;;;;2.30;1.90;;;18.10;1.40;;;19.63;100.00;95952.33;618088;226;31897;-74
2022/05/19 07:41:11;;;;;;;1.55;1.35;;;18.40;1.40;;;19.95;100.00;95950.58;647604;216;31525;-75
2022/05/19 07:43:53;;;;;;;2.10;2.00;;;18.70;1.40;;;20.24;100.00;95948.95;646881;216;31535;-75
2022/05/19 07:46:35;;;;;;;5.50;1.75;;;18.90;1.40;;;20.46;100.00;95947.46;645343;212;31576;-74
2022/05/19 07:49:19;;;;;;;1.90;1.80;;;19.10;1.40;;;20.84;100.00;95948.49;648094;212;31843;-77
2022/05/19 07:52:07;;;;;;;3.45;2.37;;;19.50;1.40;;;20.74;100.00;95951.31;645518;216;31579;-75
2022/05/19 07:54:48;;;;;;;3.40;1.80;;;19.40;1.40;;;20.76;100.00;95951.89;646149;216;31546;-75
2022/05/19 07:57:30;;;;;;;2.15;1.80;;;19.60;1.40;;;20.81;100.00;95948.47;647543;216;33621;-75
2022/05/19 08:00:12;;;;;;;2.00;1.75;;;19.80;1.40;;;20.80;100.00;95949.20;646256;212;31893;-75
2022/05/19 08:02:54;;;;;;;2.83;1.60;;;19.80;1.40;;;20.97;100.00;95945.39;647201;216;31685;-75
2022/05/19 08:05:36;;;;;;;1.60;1.50;;;19.90;1.40;;;21.21;100.00;95942.39;619185;226;42527;-75
2022/05/19 08:08:17;;;;;;;1.70;1.40;;;20.00;1.40;;;21.15;100.00;95946.84;643903;213;31777;-76
2022/05/19 08:10:59;;;;;;;1.60;1.25;;;20.10;1.40;;;21.14;100.00;95945.06;646161;216;31591;-75
2022/05/19 08:16:35;;;;;;;1.50;1.40;;;20.50;1.40;;;21.68;100.00;95939.70;646844;212;31509;-76
2022/05/19 08:19:17;;;;;;;1.50;1.40;;;20.60;1.40;;;21.87;95.79;95942.69;647486;212;31594;-76
2022/05/19 08:21:58;;;;;;;1.90;1.50;;;20.80;1.40;;;22.23;96.02;95943.67;646115;216;31534;-75
2022/05/19 08:24:49;;;;;;;1.70;1.37;;;21.00;1.40;;;22.43;100.00;95943.95;647161;216;31685;-77
2022/05/19 08:27:25;;;;;;;2.03;1.77;;;21.30;1.40;;;22.81;89.20;95940.00;648476;216;31787;-78
2022/05/19 08:30:13;;;;;;;0.93;0.90;;;21.50;1.40;;;23.00;84.80;95938.12;646859;212;31723;-76
2022/05/19 08:33:01;;;;;;;2.00;1.30;;;21.80;1.40;;;23.38;86.00;95940.59;616982;226;42522;-78
2022/05/19 08:35:53;;;;;;;2.00;1.10;;;22.20;1.40;;;23.53;82.98;95942.95;646474;216;32107;-76
2022/05/19 08:38:35;;;;;;;1.77;1.48;;;22.30;1.40;;;23.57;81.37;95941.86;646090;212;35790;-76
2022/05/19 08:41:33;;;;;;;1.40;1.30;;;22.20;1.40;;;24.01;80.98;95941.08;645330;216;31558;-76
2022/05/19 08:44:20;;;;;;;1.30;1.20;;;22.80;1.40;;;24.10;76.89;95945.80;647578;216;32484;-76
2022/05/19 08:47:02;;;;;;;1.80;1.55;;;22.60;1.40;;;24.18;77.08;95943.09;618918;226;31846;-76
2022/05/19 08:49:47;;;;;;;2.10;1.20;;;22.80;1.40;;;24.36;79.28;95944.75;646972;216;31761;-76
2022/05/19 08:52:28;;;;;;;1.40;1.30;;;23.00;1.40;;;24.55;80.01;95944.53;647276;216;31601;-76
2022/05/19 08:55:16;;;;;;;1.70;1.23;;;23.10;1.40;;;24.64;78.84;95944.22;646577;216;42664;-78
2022/05/19 08:58:09;;;;;;;1.10;1.00;;;23.10;1.40;;;25.10;79.39;95937.61;647127;216;31483;-77
2022/05/19 09:01:01;;;;;;;1.83;1.60;;;23.50;1.40;;;25.53;77.58;95931.13;641657;216;42176;-76
2022/05/19 09:03:53;;;;;;;1.50;1.27;;;23.90;1.40;;;25.63;74.51;95926.77;646575;216;42349;-76
2022/05/19 09:12:39;;;;;;;2.92;1.58;;;24.80;1.40;;;26.01;70.61;95928.23;619501;222;32289;-78
2022/05/19 09:15:27;;;;;;;1.60;1.50;;;24.80;1.40;;;26.81;72.25;95923.65;648241;216;31852;-76
2022/05/19 09:18:14;;;;;;;1.60;1.50;;;26.40;1.40;;;28.38;64.44;95923.95;646880;216;31559;-78
2022/05/19 09:20:56;;;;;;;2.03;1.83;;;29.00;1.40;;;29.25;62.19;95926.90;646096;216;32191;-77
2022/05/19 09:23:40;;;;;;;2.50;2.30;;;31.20;1.40;;;28.96;58.85;95921.30;643318;216;31717;-78
2022/05/19 09:26:41;;;;;;;1.73;1.62;;;29.10;1.40;;;28.78;59.94;95927.56;618974;222;42783;-77
2022/05/19 09:29:30;;;;;;;1.90;1.80;;;28.30;1.40;;;28.94;60.47;95927.70;619071;226;32151;-76
2022/05/19 09:32:26;;;;;;;5.55;2.25;;;28.70;1.40;;;29.13;60.19;95925.00;647547;212;31552;-78
2022/05/19 09:35:52;;;;;;;2.30;2.10;;;29.00;1.40;;;29.31;59.57;95923.58;648405;212;32129;-77
2022/05/19 09:38:35;;;;;;;3.20;1.65;;;29.20;1.40;;;31.04;59.36;95910.86;619153;226;33580;-77
2022/05/19 09:41:26;;;;;;;2.73;2.17;;;31.20;1.40;;;31.76;53.93;95906.23;646102;216;31872;-77
2022/05/19 09:44:11;;;;;;;2.25;2.12;;;31.40;1.40;;;32.27;53.32;95910.94;645463;216;42444;-76
2022/05/19 09:46:58;;;;;;;2.00;1.83;;;31.50;1.40;;;32.89;50.12;95910.95;648162;212;32397;-77
2022/05/19 09:49:44;;;;;;;2.40;2.20;;;31.30;1.40;;;32.24;50.45;95906.65;647279;212;31748;-77
2022/05/19 09:52:28;;;;;;;2.67;2.25;;;31.20;1.40;;;33.06;51.48;95907.77;646012;216;42231;-77
2022/05/19 09:55:16;;;;;;;2.10;2.00;;;31.90;1.40;;;31.41;51.74;95910.41;647902;212;31566;-77
2022/05/19 09:57:58;;;;;;;2.45;2.00;;;30.20;1.40;;;32.42;51.94;95908.48;647033;213;31573;-77
2022/05/19 10:00:53;;;;;;;2.58;2.15;;;31.50;1.40;;;31.86;51.17;95908.92;646494;216;31587;-78
2022/05/19 10:06:08;;;;;;;2.40;2.20;;;31.30;1.40;;;31.77;51.24;95904.31;619741;222;31917;-78
2022/05/19 10:08:58;;;;;;;3.83;2.40;;;30.00;1.40;;;31.80;52.13;95903.23;638917;212;31714;-77
2022/05/19 10:11:55;;;;;;;4.00;1.98;;;30.90;1.40;;;33.14;48.24;95898.37;646259;212;32100;-77
2022/05/19 10:14:37;;;;;;;3.10;1.90;;;31.50;1.40;;;33.99;46.35;95898.13;646455;212;31606;-77
2022/05/19 10:17:39;;;;;;;2.50;1.87;;;31.80;1.40;;;32.75;50.30;95900.19;646185;212;31586;-77
2022/05/19 10:20:24;;;;;;;2.60;2.20;;;30.20;1.40;;;31.19;51.12;95905.16;647601;212;31594;-77
2022/05/19 10:23:36;;;;;;;2.50;2.30;;;29.40;1.40;;;31.44;52.72;95898.72;619359;225;32055;-77
2022/05/19 10:26:26;;;;;;;2.42;2.05;;;30.10;1.40;;;31.95;50.58;95895.20;645281;212;31566;-77
2022/05/19 10:32:59;;;;;;;2.15;1.95;;;29.10;1.40;;;31.46;53.37;95895.44;647052;216;31522;-76
2022/05/19 10:36:12;;;;;;;2.37;2.08;;;28.80;1.40;;;30.88;54.34;95890.27;646795;212;42989;-77
2022/05/19 10:39:03;;;;;;;2.62;2.22;;;28.50;1.40;;;30.46;54.04;95889.73;618959;222;32151;-74
2022/05/19 10:42:02;;;;;;;4.53;2.17;;;28.30;1.40;;;31.09;52.53;95888.45;619328;226;31880;-76
2022/05/19 10:44:52;;;;;;;3.50;2.47;;;28.70;1.40;;;30.71;53.40;95884.03;647039;216;31527;-76
2022/05/19 10:47:55;;;;;;;5.40;2.60;;;28.30;1.40;;;30.43;54.01;95881.42;646286;212;31526;-77
2022/05/19 10:50:38;;;;;;;2.67;2.00;;;28.60;1.40;;;31.19;55.24;95879.20;647167;212;32343;-75
2022/05/19 10:54:43;;;;;;;2.73;2.30;;;29.30;1.40;;;30.98;52.98;95872.84;646566;216;31711;-74
2022/05/19 10:58:04;;;;;;;3.33;2.50;;;29.10;1.40;;;31.70;54.45;95871.17;642223;215;31529;-77
2022/05/19 11:01:15;;;;;;;3.90;2.20;;;29.50;1.40;;;31.22;53.42;95873.92;645910;216;31519;-74
2022/05/19 11:04:16;;;;;;;2.17;1.98;;;29.00;1.40;;;30.81;53.06;95866.84;646629;212;31581;-76
2022/05/19 11:07:19;;;;;;;1.98;1.70;;;29.10;1.40;;;30.61;52.23;95863.48;646549;216;31554;-74
2022/05/19 11:10:29;;;;;;;2.30;1.85;;;29.00;1.40;;;30.52;53.58;95859.66;645448;216;31822;-75
2022/05/19 11:15:59;;;;;;;2.20;2.10;;;29.40;1.40;;;31.07;53.74;95852.59;645988;216;31641;-76
2022/05/19 11:19:02;;;;;;;2.80;2.30;;;29.50;1.40;;;31.51;52.86;95850.07;646247;216;31546;-75
2022/05/19 11:21:50;;;;;;;2.10;1.90;;;29.80;1.40;;;31.73;51.19;95847.00;646194;212;31695;-75
2022/05/19 11:27:12;;;;;;;4.75;1.92;;;30.50;1.40;;;33.63;47.53;95839.66;646597;216;31567;-77
2022/05/19 11:30:01;;;;;;;1.93;1.77;;;31.60;1.40;;;34.77;44.27;95836.97;647143;216;31636;-77
2022/05/19 11:32:43;;;;;;;5.35;2.00;;;32.60;1.40;;;35.83;41.77;95829.42;619921;226;43165;-78
2022/05/19 11:35:59;;;;;;;2.45;1.60;;;32.20;1.40;;;35.50;42.04;95837.64;642118;219;31599;-78
2022/05/19 11:38:46;;;;;;;2.00;1.90;;;32.20;1.40;;;33.70;45.90;95840.57;648158;216;31671;-78
2022/05/19 11:41:32;;;;;;;3.50;2.90;;;31.90;1.40;;;35.26;42.00;95834.55;645574;212;31541;-77
2022/05/19 11:44:36;;;;;;;2.37;1.87;;;32.90;1.40;;;36.97;41.16;95825.24;646684;212;31571;-78
2022/05/19 11:55:53;;;;;;;2.17;1.90;;;32.10;1.40;;;38.36;39.06;95818.92;647319;216;31513;-78
2022/05/19 11:58:38;;;;;;;2.00;1.70;;;33.80;1.40;;;39.73;35.50;95809.98;619547;226;31888;-76
2022/05/19 12:01:26;;;;;;;2.15;1.95;;;33.60;1.40;;;37.71;38.57;95822.13;645809;216;31618;-78
2022/05/19 12:06:59;;;;;;;3.22;1.98;;;31.50;1.40;;;35.26;40.91;95823.15;646943;216;31615;-76
2022/05/19 12:09:44;;;;;;;1.67;1.58;;;31.40;1.40;;;34.60;40.07;95820.16;647381;216;31706;-79
2022/05/19 12:12:30;;;;;;;2.72;1.70;;;31.20;1.40;;;37.01;37.85;95813.06;647316;212;32206;-78
2022/05/19 12:15:19;;;;;;;2.87;1.80;;;32.40;1.40;;;36.65;39.60;95821.66;647157;216;42231;-78
2022/05/19 12:18:27;;;;;;;2.10;1.83;;;32.10;1.40;;;36.06;38.26;95816.34;630206;221;43059;-76
2022/05/19 12:21:16;;;;;;;3.20;1.52;;;32.20;1.40;;;35.57;38.60;95816.89;647105;216;42603;-78
2022/05/19 12:24:04;;;;;;;2.40;1.67;;;31.70;1.40;;;35.77;39.18;95816.94;646642;216;31755;-75
2022/05/19 12:26:54;;;;;;;1.60;1.40;;;32.20;1.40;;;37.39;36.39;95817.81;647401;216;32225;-77
2022/05/19 12:29:52;;;;;;;2.42;1.60;;;32.90;1.40;;;37.56;36.28;95822.46;647968;212;32257;-77
2022/05/19 12:32:35;;;;;;;2.00;1.60;;;32.70;1.40;;;39.47;34.58;95806.78;647313;216;31612;-77
2022/05/19 12:35:55;;;;;;;3.50;1.85;;;33.50;1.40;;;38.66;34.18;95814.38;647101;216;31675;-77
2022/05/19 12:38:37;;;;;;;1.70;1.60;;;32.90;1.40;;;35.69;37.75;95813.86;646750;212;31519;-77
2022/05/19 12:41:38;;;;;;;3.47;1.98;;;30.60;1.40;;;35.11;40.35;95821.21;619757;226;31828;-77
2022/05/19 12:44:34;;;;;;;2.35;2.15;;;31.70;1.40;;;37.27;36.85;95808.75;620561;222;42732;-77
2022/05/19 12:47:22;;;;;;;5.35;2.10;;;32.40;1.40;;;36.95;37.15;95804.80;647411;216;42150;-77
2022/05/19 12:52:57;;;;;;;2.12;1.70;;;32.30;1.40;;;34.90;39.65;95814.58;643179;214;32117;-78